Terminal Aerodrome Forecast
Issued by NWS

Home | Current Version | Previous Version | Text Only | Print | Product List | Glossary On
Versions: 1 2 3 4 5 6 7 8 9 10 11 12 13 14 15 16 17
000
FTUS46 KSEW 210100 AAA
TAFHQM
TAF AMD
KHQM 210127Z 2101/2124 25011KT 6SM HZ SKC
     FM210500 26008KT P6SM SCT010
      TEMPO 2105/2108 BKN010
     FM210900 28005KT P6SM OVC007
     FM212000 26016G24KT P6SM VCSH OVC025=

USA.gov is the U.S. government's official web portal to all federal, state and local government web resources and services.